sensor_id;sensor_type;location;lat;lon;timestamp;temperature;humidity
10864;DHT22;5485;37.558;126.950;2023-04-01T00:01:46;22.40;1.00
10864;DHT22;5485;37.558;126.950;2023-04-01T00:04:13;22.40;1.00
10864;DHT22;5485;37.558;126.950;2023-04-01T00:06:41;22.60;1.00
10864;DHT22;5485;37.558;126.950;2023-04-01T00:09:08;22.80;1.00
10864;DHT22;5485;37.558;126.950;2023-04-01T00:11:35;22.60;1.00
10864;DHT22;5485;37.558;126.950;2023-04-01T00:14:02;23.00;1.00
10864;DHT22;5485;37.558;126.950;2023-04-01T00:16:29;23.00;1.00
10864;DHT22;5485;37.558;126.950;2023-04-01T00:18:56;23.30;1.00
10864;DHT22;5485;37.558;126.950;2023-04-01T00:21:23;22.90;1.00
10864;DHT22;5485;37.558;126.950;2023-04-01T00:23:51;23.00;1.00
10864;DHT22;5485;37.558;126.950;2023-04-01T00:26:18;22.90;1.00
10864;DHT22;5485;37.558;126.950;2023-04-01T00:28:47;23.30;1.00
10864;DHT22;5485;37.558;126.950;2023-04-01T00:31:14;23.40;1.00
10864;DHT22;5485;37.558;126.950;2023-04-01T00:33:41;23.70;1.00
10864;DHT22;5485;37.558;126.950;2023-04-01T00:36:12;23.80;1.00
10864;DHT22;5485;37.558;126.950;2023-04-01T00:38:40;23.50;1.00
10864;DHT22;5485;37.558;126.950;2023-04-01T00:41:09;24.30;1.00
10864;DHT22;5485;37.558;126.950;2023-04-01T00:43:41;24.70;1.00
10864;DHT22;5485;37.558;126.950;2023-04-01T00:46:09;24.90;1.00
10864;DHT22;5485;37.558;126.950;2023-04-01T00:48:43;24.70;1.00
10864;DHT22;5485;37.558;126.950;2023-04-01T00:51:25;24.60;1.00
10864;DHT22;5485;37.558;126.950;2023-04-01T00:53:57;24.10;1.00
10864;DHT22;5485;37.558;126.950;2023-04-01T00:56:30;24.10;1.00
10864;DHT22;5485;37.558;126.950;2023-04-01T00:59:02;24.20;1.00
10864;DHT22;5485;37.558;126.950;2023-04-01T01:01:34;24.60;1.00
10864;DHT22;5485;37.558;126.950;2023-04-01T01:04:03;24.60;1.00
10864;DHT22;5485;37.558;126.950;2023-04-01T01:06:46;24.90;1.00
10864;DHT22;5485;37.558;126.950;2023-04-01T01:09:44;24.60;1.00
10864;DHT22;5485;37.558;126.950;2023-04-01T01:15:26;25.70;1.00
10864;DHT22;5485;37.558;126.950;2023-04-01T01:18:19;25.30;1.00
10864;DHT22;5485;37.558;126.950;2023-04-01T01:24:25;25.10;1.00
10864;DHT22;5485;37.558;126.950;2023-04-01T01:35:28;25.40;1.00
10864;DHT22;5485;37.558;126.950;2023-04-01T01:38:17;25.50;1.00
10864;DHT22;5485;37.558;126.950;2023-04-01T01:40:49;25.50;1.00
10864;DHT22;5485;37.558;126.950;2023-04-01T01:43:26;25.50;1.00
10864;DHT22;5485;37.558;126.950;2023-04-01T01:45:59;25.60;1.00
10864;DHT22;5485;37.558;126.950;2023-04-01T01:48:31;25.90;1.00
10864;DHT22;5485;37.558;126.950;2023-04-01T01:51:03;25.80;1.00
10864;DHT22;5485;37.558;126.950;2023-04-01T01:53:33;25.60;1.00
10864;DHT22;5485;37.558;126.950;2023-04-01T01:56:00;26.10;1.00
10864;DHT22;5485;37.558;126.950;2023-04-01T01:58:35;25.80;1.00
10864;DHT22;5485;37.558;126.950;2023-04-01T02:01:13;25.80;1.00
10864;DHT22;5485;37.558;126.950;2023-04-01T02:03:42;26.10;1.00
10864;DHT22;5485;37.558;126.950;2023-04-01T02:06:13;26.30;1.00
10864;DHT22;5485;37.558;126.950;2023-04-01T02:08:52;26.20;1.00
10864;DHT22;5485;37.558;126.950;2023-04-01T02:11:34;26.20;1.00
10864;DHT22;5485;37.558;126.950;2023-04-01T02:14:29;26.20;1.00
10864;DHT22;5485;37.558;126.950;2023-04-01T02:17:08;25.90;1.00
10864;DHT22;5485;37.558;126.950;2023-04-01T02:19:46;25.90;1.00
10864;DHT22;5485;37.558;126.950;2023-04-01T02:22:18;25.90;1.00
10864;DHT22;5485;37.558;126.950;2023-04-01T02:24:50;26.20;1.00
10864;DHT22;5485;37.558;126.950;2023-04-01T02:27:17;25.80;1.00
10864;DHT22;5485;37.558;126.950;2023-04-01T02:29:44;25.60;1.00
10864;DHT22;5485;37.558;126.950;2023-04-01T02:32:15;25.90;1.00
10864;DHT22;5485;37.558;126.950;2023-04-01T02:34:43;25.50;1.00
10864;DHT22;5485;37.558;126.950;2023-04-01T02:37:12;25.30;1.00
10864;DHT22;5485;37.558;126.950;2023-04-01T02:39:39;25.20;1.00
10864;DHT22;5485;37.558;126.950;2023-04-01T02:42:06;25.50;1.00
10864;DHT22;5485;37.558;126.950;2023-04-01T02:44:33;25.70;1.00
10864;DHT22;5485;37.558;126.950;2023-04-01T02:47:00;25.40;1.00
10864;DHT22;5485;37.558;126.950;2023-04-01T02:49:27;25.30;1.00
10864;DHT22;5485;37.558;126.950;2023-04-01T02:51:54;25.00;1.00
10864;DHT22;5485;37.558;126.950;2023-04-01T02:54:21;24.90;1.00
10864;DHT22;5485;37.558;126.950;2023-04-01T02:56:51;24.60;1.00
10864;DHT22;5485;37.558;126.950;2023-04-01T02:59:18;24.60;1.00
10864;DHT22;5485;37.558;126.950;2023-04-01T03:01:44;24.60;1.00
10864;DHT22;5485;37.558;126.950;2023-04-01T03:04:11;24.40;1.00
10864;DHT22;5485;37.558;126.950;2023-04-01T03:06:38;24.10;1.00
10864;DHT22;5485;37.558;126.950;2023-04-01T03:09:05;23.90;1.00
10864;DHT22;5485;37.558;126.950;2023-04-01T03:11:33;23.90;1.00
10864;DHT22;5485;37.558;126.950;2023-04-01T03:13:59;23.80;1.00
10864;DHT22;5485;37.558;126.950;2023-04-01T03:16:26;23.80;1.00
10864;DHT22;5485;37.558;126.950;2023-04-01T03:18:53;23.80;1.00
10864;DHT22;5485;37.558;126.950;2023-04-01T03:21:23;23.90;1.00
10864;DHT22;5485;37.558;126.950;2023-04-01T03:23:51;24.00;1.00
10864;DHT22;5485;37.558;126.950;2023-04-01T03:26:18;23.90;1.00
10864;DHT22;5485;37.558;126.950;2023-04-01T03:28:47;23.80;1.00
10864;DHT22;5485;37.558;126.950;2023-04-01T03:31:14;23.80;1.00
10864;DHT22;5485;37.558;126.950;2023-04-01T03:33:42;23.80;1.00
10864;DHT22;5485;37.558;126.950;2023-04-01T03:36:09;23.90;1.00
10864;DHT22;5485;37.558;126.950;2023-04-01T03:38:39;23.80;1.00
10864;DHT22;5485;37.558;126.950;2023-04-01T03:41:11;23.80;1.00
10864;DHT22;5485;37.558;126.950;2023-04-01T03:43:38;23.70;1.00
10864;DHT22;5485;37.558;126.950;2023-04-01T03:46:05;23.70;1.00
10864;DHT22;5485;37.558;126.950;2023-04-01T03:48:31;23.90;1.00
10864;DHT22;5485;37.558;126.950;2023-04-01T03:51:01;24.00;1.00
10864;DHT22;5485;37.558;126.950;2023-04-01T03:53:27;24.00;1.00
10864;DHT22;5485;37.558;126.950;2023-04-01T03:55:54;24.00;1.00
10864;DHT22;5485;37.558;126.950;2023-04-01T03:58:21;24.00;1.00
10864;DHT22;5485;37.558;126.950;2023-04-01T04:00:48;24.00;1.00
10864;DHT22;5485;37.558;126.950;2023-04-01T04:03:15;24.00;1.00
10864;DHT22;5485;37.558;126.950;2023-04-01T04:05:49;24.20;1.00
10864;DHT22;5485;37.558;126.950;2023-04-01T04:08:17;24.20;1.00
10864;DHT22;5485;37.558;126.950;2023-04-01T04:10:44;24.20;1.00
10864;DHT22;5485;37.558;126.950;2023-04-01T04:13:12;24.30;1.00
10864;DHT22;5485;37.558;126.950;2023-04-01T04:15:48;24.40;1.00
10864;DHT22;5485;37.558;126.950;2023-04-01T04:18:15;24.60;1.00
10864;DHT22;5485;37.558;126.950;2023-04-01T04:20:46;24.50;1.00
10864;DHT22;5485;37.558;126.950;2023-04-01T04:23:16;24.40;1.00
10864;DHT22;5485;37.558;126.950;2023-04-01T04:26:06;24.40;1.00
10864;DHT22;5485;37.558;126.950;2023-04-01T04:28:33;24.50;1.00
10864;DHT22;5485;37.558;126.950;2023-04-01T04:31:01;24.20;1.00
10864;DHT22;5485;37.558;126.950;2023-04-01T04:33:28;24.30;1.00
10864;DHT22;5485;37.558;126.950;2023-04-01T04:35:56;24.50;1.00
10864;DHT22;5485;37.558;126.950;2023-04-01T04:38:26;24.60;1.00
10864;DHT22;5485;37.558;126.950;2023-04-01T04:40:53;24.60;1.00
10864;DHT22;5485;37.558;126.950;2023-04-01T04:43:20;24.80;1.00
10864;DHT22;5485;37.558;126.950;2023-04-01T04:45:47;24.90;1.00
10864;DHT22;5485;37.558;126.950;2023-04-01T04:48:15;24.60;1.00
10864;DHT22;5485;37.558;126.950;2023-04-01T04:50:51;24.60;1.00
10864;DHT22;5485;37.558;126.950;2023-04-01T04:53:19;24.60;1.00
10864;DHT22;5485;37.558;126.950;2023-04-01T04:55:47;24.70;1.00
10864;DHT22;5485;37.558;126.950;2023-04-01T04:58:15;24.80;1.00
10864;DHT22;5485;37.558;126.950;2023-04-01T05:00:43;24.90;1.00
10864;DHT22;5485;37.558;126.950;2023-04-01T05:03:11;24.90;1.00
10864;DHT22;5485;37.558;126.950;2023-04-01T05:05:39;24.60;1.00
10864;DHT22;5485;37.558;126.950;2023-04-01T05:08:06;24.50;1.00
10864;DHT22;5485;37.558;126.950;2023-04-01T05:10:32;24.30;1.00
10864;DHT22;5485;37.558;126.950;2023-04-01T05:12:59;24.30;1.00
10864;DHT22;5485;37.558;126.950;2023-04-01T05:15:26;24.30;1.00
10864;DHT22;5485;37.558;126.950;2023-04-01T05:17:56;24.20;1.00
10864;DHT22;5485;37.558;126.950;2023-04-01T05:20:23;24.20;1.00
10864;DHT22;5485;37.558;126.950;2023-04-01T05:22:50;24.30;1.00
10864;DHT22;5485;37.558;126.950;2023-04-01T05:25:21;24.40;1.00
10864;DHT22;5485;37.558;126.950;2023-04-01T05:27:48;24.50;1.00
10864;DHT22;5485;37.558;126.950;2023-04-01T05:30:17;24.60;1.00
10864;DHT22;5485;37.558;126.950;2023-04-01T05:32:44;24.70;1.00
10864;DHT22;5485;37.558;126.950;2023-04-01T05:35:11;24.70;1.00
10864;DHT22;5485;37.558;126.950;2023-04-01T05:37:38;24.70;1.00
10864;DHT22;5485;37.558;126.950;2023-04-01T05:40:08;24.80;1.00
10864;DHT22;5485;37.558;126.950;2023-04-01T05:42:35;24.90;1.00
10864;DHT22;5485;37.558;126.950;2023-04-01T05:45:05;24.90;1.00
10864;DHT22;5485;37.558;126.950;2023-04-01T05:47:33;24.90;1.00
10864;DHT22;5485;37.558;126.950;2023-04-01T05:49:59;25.00;1.00
10864;DHT22;5485;37.558;126.950;2023-04-01T05:52:26;25.00;1.00
10864;DHT22;5485;37.558;126.950;2023-04-01T05:54:53;25.10;1.00
10864;DHT22;5485;37.558;126.950;2023-04-01T05:57:20;25.00;1.00
10864;DHT22;5485;37.558;126.950;2023-04-01T05:59:47;25.00;1.00
10864;DHT22;5485;37.558;126.950;2023-04-01T06:02:16;24.60;1.00
10864;DHT22;5485;37.558;126.950;2023-04-01T06:04:43;24.60;1.00
10864;DHT22;5485;37.558;126.950;2023-04-01T06:07:18;24.50;1.00
10864;DHT22;5485;37.558;126.950;2023-04-01T06:09:48;24.50;1.00
10864;DHT22;5485;37.558;126.950;2023-04-01T06:24:09;24.80;1.00
10864;DHT22;5485;37.558;126.950;2023-04-01T06:38:04;24.70;1.00
10864;DHT22;5485;37.558;126.950;2023-04-01T06:55:26;24.70;1.00
10864;DHT22;5485;37.558;126.950;2023-04-01T06:57:56;24.80;1.00
10864;DHT22;5485;37.558;126.950;2023-04-01T07:00:33;24.80;1.00
10864;DHT22;5485;37.558;126.950;2023-04-01T07:05:31;24.70;1.00
10864;DHT22;5485;37.558;126.950;2023-04-01T07:08:03;24.80;1.00
10864;DHT22;5485;37.558;126.950;2023-04-01T07:13:27;24.90;1.00
10864;DHT22;5485;37.558;126.950;2023-04-01T07:16:34;24.80;1.00
10864;DHT22;5485;37.558;126.950;2023-04-01T07:19:12;24.60;1.00
10864;DHT22;5485;37.558;126.950;2023-04-01T07:24:42;24.70;1.00
10864;DHT22;5485;37.558;126.950;2023-04-01T07:27:12;24.80;1.00
10864;DHT22;5485;37.558;126.950;2023-04-01T07:29:41;24.60;1.00
10864;DHT22;5485;37.558;126.950;2023-04-01T07:37:40;24.60;1.00
10864;DHT22;5485;37.558;126.950;2023-04-01T07:48:55;24.40;1.00
10864;DHT22;5485;37.558;126.950;2023-04-01T07:57:52;24.10;1.00
10864;DHT22;5485;37.558;126.950;2023-04-01T08:14:19;22.90;1.00
10864;DHT22;5485;37.558;126.950;2023-04-01T08:22:15;22.70;1.00
10864;DHT22;5485;37.558;126.950;2023-04-01T08:24:46;22.60;1.00
10864;DHT22;5485;37.558;126.950;2023-04-01T08:27:21;22.50;1.00
10864;DHT22;5485;37.558;126.950;2023-04-01T08:29:57;22.40;1.00
10864;DHT22;5485;37.558;126.950;2023-04-01T08:32:38;22.30;1.00
10864;DHT22;5485;37.558;126.950;2023-04-01T08:37:58;22.20;1.00
10864;DHT22;5485;37.558;126.950;2023-04-01T08:40:49;22.20;1.00
10864;DHT22;5485;37.558;126.950;2023-04-01T08:46:33;22.00;1.00
10864;DHT22;5485;37.558;126.950;2023-04-01T08:49:31;22.00;1.00
10864;DHT22;5485;37.558;126.950;2023-04-01T08:55:04;21.80;1.00
10864;DHT22;5485;37.558;126.950;2023-04-01T09:00:48;21.70;1.00
10864;DHT22;5485;37.558;126.950;2023-04-01T09:03:31;21.50;1.00
10864;DHT22;5485;37.558;126.950;2023-04-01T09:19:45;20.80;1.00
10864;DHT22;5485;37.558;126.950;2023-04-01T09:28:28;20.40;1.00
10864;DHT22;5485;37.558;126.950;2023-04-01T09:48:40;19.70;1.00
10864;DHT22;5485;37.558;126.950;2023-04-01T09:57:12;19.50;1.00
10864;DHT22;5485;37.558;126.950;2023-04-01T10:16:11;18.90;1.00
10864;DHT22;5485;37.558;126.950;2023-04-01T10:21:56;18.70;1.00
10864;DHT22;5485;37.558;126.950;2023-04-01T10:28:07;18.70;1.00
10864;DHT22;5485;37.558;126.950;2023-04-01T10:30:58;18.60;1.00
10864;DHT22;5485;37.558;126.950;2023-04-01T11:45:12;18.00;1.00
10864;DHT22;5485;37.558;126.950;2023-04-01T11:47:53;18.00;1.00
10864;DHT22;5485;37.558;126.950;2023-04-01T12:12:32;17.60;1.00
10864;DHT22;5485;37.558;126.950;2023-04-01T12:15:50;17.60;1.00
10864;DHT22;5485;37.558;126.950;2023-04-01T12:21:37;17.50;1.00
10864;DHT22;5485;37.558;126.950;2023-04-01T12:24:25;17.40;1.00
10864;DHT22;5485;37.558;126.950;2023-04-01T12:32:16;17.40;1.00
10864;DHT22;5485;37.558;126.950;2023-04-01T12:35:19;17.30;1.00
10864;DHT22;5485;37.558;126.950;2023-04-01T12:41:19;17.20;1.00
10864;DHT22;5485;37.558;126.950;2023-04-01T12:44:00;17.20;1.00
10864;DHT22;5485;37.558;126.950;2023-04-01T12:49:34;17.20;1.00
10864;DHT22;5485;37.558;126.950;2023-04-01T12:57:54;17.20;1.00
10864;DHT22;5485;37.558;126.950;2023-04-01T13:12:36;17.50;1.00
10864;DHT22;5485;37.558;126.950;2023-04-01T13:15:16;17.50;1.00
10864;DHT22;5485;37.558;126.950;2023-04-01T13:23:32;17.60;1.00
10864;DHT22;5485;37.558;126.950;2023-04-01T13:26:13;17.60;1.00
10864;DHT22;5485;37.558;126.950;2023-04-01T13:31:29;17.50;1.00
10864;DHT22;5485;37.558;126.950;2023-04-01T13:43:02;17.10;1.00
10864;DHT22;5485;37.558;126.950;2023-04-01T13:54:05;16.80;1.00
10864;DHT22;5485;37.558;126.950;2023-04-01T14:28:15;16.20;1.00
10864;DHT22;5485;37.558;126.950;2023-04-01T14:39:36;16.10;1.00
10864;DHT22;5485;37.558;126.950;2023-04-01T14:45:37;15.90;1.00
10864;DHT22;5485;37.558;126.950;2023-04-01T14:47:51;15.80;1.00
10864;DHT22;5485;37.558;126.950;2023-04-01T14:50:40;15.70;1.00
10864;DHT22;5485;37.558;126.950;2023-04-01T14:56:00;15.60;1.00
10864;DHT22;5485;37.558;126.950;2023-04-01T14:58:45;15.60;1.00
10864;DHT22;5485;37.558;126.950;2023-04-01T15:12:58;15.70;1.00
10864;DHT22;5485;37.558;126.950;2023-04-01T15:30:26;16.10;1.00
10864;DHT22;5485;37.558;126.950;2023-04-01T15:32:29;16.20;1.00
10864;DHT22;5485;37.558;126.950;2023-04-01T15:43:46;16.20;1.00
10864;DHT22;5485;37.558;126.950;2023-04-01T15:46:46;16.20;1.00
10864;DHT22;5485;37.558;126.950;2023-04-01T16:06:34;16.10;1.00
10864;DHT22;5485;37.558;126.950;2023-04-01T16:09:43;16.00;1.00
10864;DHT22;5485;37.558;126.950;2023-04-01T16:20:20;15.80;1.00
10864;DHT22;5485;37.558;126.950;2023-04-01T16:23:04;15.80;1.00
10864;DHT22;5485;37.558;126.950;2023-04-01T16:25:40;15.90;1.00
10864;DHT22;5485;37.558;126.950;2023-04-01T16:28:25;15.90;1.00
10864;DHT22;5485;37.558;126.950;2023-04-01T16:34:21;15.80;1.00
10864;DHT22;5485;37.558;126.950;2023-04-01T16:42:56;15.70;1.00
10864;DHT22;5485;37.558;126.950;2023-04-01T16:45:33;15.70;1.00
10864;DHT22;5485;37.558;126.950;2023-04-01T16:48:45;15.70;1.00
10864;DHT22;5485;37.558;126.950;2023-04-01T16:51:13;15.60;1.00
10864;DHT22;5485;37.558;126.950;2023-04-01T16:56:39;15.50;1.00
10864;DHT22;5485;37.558;126.950;2023-04-01T16:59:21;15.50;1.00
10864;DHT22;5485;37.558;126.950;2023-04-01T17:02:10;15.50;1.00
10864;DHT22;5485;37.558;126.950;2023-04-01T17:05:06;15.50;1.00
10864;DHT22;5485;37.558;126.950;2023-04-01T17:10:41;15.40;1.00
10864;DHT22;5485;37.558;126.950;2023-04-01T17:13:33;15.40;1.00
10864;DHT22;5485;37.558;126.950;2023-04-01T17:18:54;15.40;1.00
10864;DHT22;5485;37.558;126.950;2023-04-01T17:35:47;15.30;1.00
10864;DHT22;5485;37.558;126.950;2023-04-01T17:43:40;15.20;1.00
10864;DHT22;5485;37.558;126.950;2023-04-01T17:51:44;15.20;1.00
10864;DHT22;5485;37.558;126.950;2023-04-01T17:57:30;15.20;1.00
10864;DHT22;5485;37.558;126.950;2023-04-01T18:06:08;14.90;1.00
10864;DHT22;5485;37.558;126.950;2023-04-01T18:08:42;14.90;1.00
10864;DHT22;5485;37.558;126.950;2023-04-01T18:16:51;14.80;1.00
10864;DHT22;5485;37.558;126.950;2023-04-01T18:21:56;14.80;1.00
10864;DHT22;5485;37.558;126.950;2023-04-01T18:24:45;14.70;1.00
10864;DHT22;5485;37.558;126.950;2023-04-01T18:27:29;14.70;1.00
10864;DHT22;5485;37.558;126.950;2023-04-01T18:32:53;14.80;1.00
10864;DHT22;5485;37.558;126.950;2023-04-01T18:35:54;14.80;1.00
10864;DHT22;5485;37.558;126.950;2023-04-01T18:38:56;14.80;1.00
10864;DHT22;5485;37.558;126.950;2023-04-01T18:41:36;14.80;1.00
10864;DHT22;5485;37.558;126.950;2023-04-01T18:44:30;14.70;1.00
10864;DHT22;5485;37.558;126.950;2023-04-01T18:52:37;14.70;1.00
10864;DHT22;5485;37.558;126.950;2023-04-01T19:00:49;14.70;1.00
10864;DHT22;5485;37.558;126.950;2023-04-01T19:06:29;14.70;1.00
10864;DHT22;5485;37.558;126.950;2023-04-01T19:12:00;14.50;1.00
10864;DHT22;5485;37.558;126.950;2023-04-01T19:20:29;14.70;1.00
10864;DHT22;5485;37.558;126.950;2023-04-01T19:26:04;14.70;1.00
10864;DHT22;5485;37.558;126.950;2023-04-01T19:34:35;14.50;1.00
10864;DHT22;5485;37.558;126.950;2023-04-01T19:37:30;14.50;1.00
10864;DHT22;5485;37.558;126.950;2023-04-01T19:40:24;14.40;1.00
10864;DHT22;5485;37.558;126.950;2023-04-01T19:54:39;14.30;1.00
10864;DHT22;5485;37.558;126.950;2023-04-01T19:57:39;14.30;1.00
10864;DHT22;5485;37.558;126.950;2023-04-01T20:02:58;14.20;1.00
10864;DHT22;5485;37.558;126.950;2023-04-01T20:19:37;13.80;1.00
10864;DHT22;5485;37.558;126.950;2023-04-01T20:22:20;13.80;1.00
10864;DHT22;5485;37.558;126.950;2023-04-01T20:24:52;13.90;1.00
10864;DHT22;5485;37.558;126.950;2023-04-01T20:27:30;13.90;1.00
10864;DHT22;5485;37.558;126.950;2023-04-01T20:33:01;13.80;1.00
10864;DHT22;5485;37.558;126.950;2023-04-01T20:41:41;13.70;1.00
10864;DHT22;5485;37.558;126.950;2023-04-01T20:54:51;13.90;1.00
10864;DHT22;5485;37.558;126.950;2023-04-01T20:57:36;13.90;1.00
10864;DHT22;5485;37.558;126.950;2023-04-01T21:08:15;13.80;1.00
10864;DHT22;5485;37.558;126.950;2023-04-01T21:11:18;13.80;1.00
10864;DHT22;5485;37.558;126.950;2023-04-01T21:16:51;13.80;1.00
10864;DHT22;5485;37.558;126.950;2023-04-01T21:36:43;13.90;1.00
10864;DHT22;5485;37.558;126.950;2023-04-01T21:45:21;14.10;1.00
10864;DHT22;5485;37.558;126.950;2023-04-01T21:53:51;14.30;1.00
10864;DHT22;5485;37.558;126.950;2023-04-01T21:59:15;14.50;1.00
10864;DHT22;5485;37.558;126.950;2023-04-01T22:04:41;14.60;1.00
10864;DHT22;5485;37.558;126.950;2023-04-01T22:07:23;14.70;1.00
10864;DHT22;5485;37.558;126.950;2023-04-01T22:10:19;14.80;1.00
10864;DHT22;5485;37.558;126.950;2023-04-01T22:13:42;14.90;1.00
10864;DHT22;5485;37.558;126.950;2023-04-01T22:16:46;15.00;1.00
10864;DHT22;5485;37.558;126.950;2023-04-01T22:25:03;15.10;1.00
10864;DHT22;5485;37.558;126.950;2023-04-01T22:30:13;15.30;1.00
10864;DHT22;5485;37.558;126.950;2023-04-01T22:33:07;15.30;1.00
10864;DHT22;5485;37.558;126.950;2023-04-01T22:41:31;15.60;1.00
10864;DHT22;5485;37.558;126.950;2023-04-01T22:44:00;15.70;1.00
10864;DHT22;5485;37.558;126.950;2023-04-01T22:46:56;15.80;1.00
10864;DHT22;5485;37.558;126.950;2023-04-01T22:49:32;15.80;1.00
10864;DHT22;5485;37.558;126.950;2023-04-01T22:52:33;15.90;1.00
10864;DHT22;5485;37.558;126.950;2023-04-01T22:55:27;16.00;1.00
10864;DHT22;5485;37.558;126.950;2023-04-01T22:58:00;16.00;1.00
10864;DHT22;5485;37.558;126.950;2023-04-01T23:00:41;16.00;1.00
10864;DHT22;5485;37.558;126.950;2023-04-01T23:03:32;16.10;1.00
10864;DHT22;5485;37.558;126.950;2023-04-01T23:06:01;16.20;1.00
10864;DHT22;5485;37.558;126.950;2023-04-01T23:08:51;16.20;1.00
10864;DHT22;5485;37.558;126.950;2023-04-01T23:16:43;16.50;1.00
10864;DHT22;5485;37.558;126.950;2023-04-01T23:22:03;16.90;1.00
10864;DHT22;5485;37.558;126.950;2023-04-01T23:27:27;17.00;1.00
10864;DHT22;5485;37.558;126.950;2023-04-01T23:29:55;17.10;1.00
10864;DHT22;5485;37.558;126.950;2023-04-01T23:32:25;17.20;1.00
10864;DHT22;5485;37.558;126.950;2023-04-01T23:34:57;17.80;1.00
10864;DHT22;5485;37.558;126.950;2023-04-01T23:37:27;18.90;1.00
10864;DHT22;5485;37.558;126.950;2023-04-01T23:39:57;19.70;1.00
10864;DHT22;5485;37.558;126.950;2023-04-01T23:42:37;20.20;1.00
10864;DHT22;5485;37.558;126.950;2023-04-01T23:45:13;21.30;1.00
10864;DHT22;5485;37.558;126.950;2023-04-01T23:47:46;22.10;1.00
10864;DHT22;5485;37.558;126.950;2023-04-01T23:50:25;22.40;1.00
10864;DHT22;5485;37.558;126.950;2023-04-01T23:53:02;22.60;1.00
10864;DHT22;5485;37.558;126.950;2023-04-01T23:55:33;22.50;1.00
